createdAt,value
2023-04-03T00:00:14.630Z,100833.44
2023-04-03T00:02:42.482Z,100835.47
2023-04-03T00:05:10.401Z,100832.88
2023-04-03T00:07:39.519Z,100834.66
2023-04-03T00:10:08.648Z,100837.09
2023-04-03T00:12:36.337Z,100835.50
2023-04-03T00:15:04.812Z,100837.72
2023-04-03T00:17:32.555Z,100841.44
2023-04-03T00:20:00.337Z,100846.94
2023-04-03T00:22:29.641Z,100849.56
2023-04-03T00:24:58.692Z,100857.09
2023-04-03T00:27:26.411Z,100842.41
2023-04-03T00:29:54.084Z,100847.00
2023-04-03T00:32:21.741Z,100843.69
2023-04-03T00:34:49.482Z,100855.34
2023-04-03T00:37:17.086Z,100854.88
2023-04-03T00:39:44.700Z,100857.13
2023-04-03T00:42:13.891Z,100852.47
2023-04-03T00:45:18.916Z,100855.31
2023-04-03T00:47:46.935Z,100863.81
2023-04-03T00:50:14.608Z,100858.38
2023-04-03T00:52:42.505Z,100864.06
2023-04-03T00:55:11.828Z,100860.19
2023-04-03T00:57:40.857Z,100858.66
2023-04-03T01:00:12.216Z,100865.78
2023-04-03T01:02:41.719Z,100867.19
2023-04-03T01:05:11.676Z,100855.88
2023-04-03T01:07:40.264Z,100865.06
2023-04-03T01:10:14.714Z,100850.22
2023-04-03T01:12:46.584Z,100855.22
2023-04-03T01:15:17.613Z,100855.50
2023-04-03T01:17:47.051Z,100853.22
2023-04-03T01:20:48.892Z,100858.59
2023-04-03T01:23:32.679Z,100836.03
2023-04-03T01:26:00.365Z,100853.84
2023-04-03T01:28:31.362Z,100853.31
2023-04-03T01:31:10.335Z,100849.16
2023-04-03T01:33:40.074Z,100850.31
2023-04-03T01:36:09.496Z,100853.81
2023-04-03T01:38:37.636Z,100852.50
2023-04-03T01:41:05.307Z,100853.69
2023-04-03T01:43:33.568Z,100853.44
2023-04-03T01:46:01.262Z,100858.50
2023-04-03T01:48:28.991Z,100864.88
2023-04-03T01:50:57.942Z,100859.66
2023-04-03T01:53:25.797Z,100868.03
2023-04-03T01:55:53.430Z,100863.91
2023-04-03T01:58:21.668Z,100862.16
2023-04-03T02:00:51.165Z,100871.31
2023-04-03T02:03:18.929Z,100863.53
2023-04-03T02:05:47.269Z,100868.94
2023-04-03T02:08:18.840Z,100860.13
2023-04-03T02:10:49.265Z,100861.25
2023-04-03T02:13:17.765Z,100731.16
2023-04-03T02:15:47.250Z,100868.16
2023-04-03T02:18:18.873Z,100860.72
2023-04-03T02:20:48.100Z,100858.41
2023-04-03T02:23:17.496Z,100856.78
2023-04-03T02:25:45.665Z,100857.38
2023-04-03T02:28:13.862Z,100858.09
2023-04-03T02:30:41.614Z,100852.19
2023-04-03T02:33:09.327Z,100854.38
2023-04-03T02:35:37.858Z,100855.75
2023-04-03T02:38:05.544Z,100848.88
2023-04-03T02:40:36.453Z,100857.03
2023-04-03T02:43:04.589Z,100863.47
2023-04-03T02:45:32.682Z,100862.16
2023-04-03T02:48:00.527Z,100869.25
2023-04-03T02:50:28.158Z,100865.22
2023-04-03T02:52:56.167Z,100866.03
2023-04-03T02:55:23.940Z,100857.47
2023-04-03T02:57:55.886Z,100856.59
2023-04-03T03:00:23.707Z,100860.63
2023-04-03T03:02:51.398Z,100850.66
2023-04-03T03:05:19.449Z,100853.44
2023-04-03T03:07:47.150Z,100851.53
2023-04-03T03:10:14.928Z,100849.88
2023-04-03T03:12:42.893Z,100849.88
2023-04-03T03:15:12.692Z,100849.88
2023-04-03T03:17:40.388Z,100852.38
2023-04-03T03:20:09.709Z,100851.88
2023-04-03T03:22:38.079Z,100857.31
2023-04-03T03:25:06.959Z,100853.25
2023-04-03T03:27:34.743Z,100857.03
2023-04-03T03:30:02.431Z,100839.25
2023-04-03T03:32:31.892Z,100864.09
2023-04-03T03:34:59.514Z,100862.53
2023-04-03T03:37:28.376Z,100859.28
2023-04-03T03:39:56.165Z,100856.28
2023-04-03T03:42:24.160Z,100856.00
2023-04-03T03:44:52.762Z,100855.53
2023-04-03T03:47:21.340Z,100862.91
2023-04-03T03:49:50.881Z,100861.63
2023-04-03T03:52:18.948Z,100869.97
2023-04-03T03:54:47.021Z,100863.50
2023-04-03T03:57:14.822Z,100869.69
2023-04-03T03:59:42.857Z,100870.84
2023-04-03T04:02:10.895Z,100872.97
2023-04-03T04:04:38.707Z,100871.34
2023-04-03T04:07:07.724Z,100862.72
2023-04-03T04:09:36.422Z,100864.91
2023-04-03T04:12:04.841Z,100864.13
2023-04-03T04:14:33.829Z,100866.09
2023-04-03T04:17:03.272Z,100864.44
2023-04-03T04:19:31.196Z,100865.28
2023-04-03T04:21:58.901Z,100866.66
2023-04-03T04:24:28.113Z,100856.63
2023-04-03T04:26:57.426Z,100864.47
2023-04-03T04:29:26.077Z,100862.91
2023-04-03T04:31:54.176Z,100870.94
2023-04-03T04:34:23.593Z,100870.88
2023-04-03T04:36:51.640Z,100861.94
2023-04-03T04:39:19.472Z,100860.09
2023-04-03T04:41:48.659Z,100855.63
2023-04-03T04:44:16.829Z,100863.47
2023-04-03T04:46:44.822Z,100864.00
2023-04-03T04:49:12.521Z,100866.81
2023-04-03T04:51:51.027Z,100865.13
2023-04-03T04:54:21.976Z,100867.03
2023-04-03T04:56:52.292Z,100861.31
2023-04-03T04:59:21.485Z,100867.78
2023-04-03T05:01:50.344Z,100871.88
2023-04-03T05:04:18.880Z,100865.66
2023-04-03T05:06:50.271Z,100868.03
2023-04-03T05:09:23.219Z,100874.50
2023-04-03T05:11:53.654Z,100880.19
2023-04-03T05:14:25.072Z,100883.66
2023-04-03T05:16:54.825Z,100877.72
2023-04-03T05:19:25.404Z,100880.22
2023-04-03T05:21:53.249Z,100884.81
2023-04-03T05:24:22.146Z,100884.50
2023-04-03T05:26:49.791Z,100892.84
2023-04-03T05:29:19.035Z,100898.22
2023-04-03T05:31:48.159Z,100891.72
2023-04-03T05:34:16.013Z,100892.50
2023-04-03T05:36:44.872Z,100893.88
2023-04-03T05:39:14.066Z,100895.19
2023-04-03T05:41:44.452Z,100897.31
2023-04-03T05:44:12.281Z,100893.19
2023-04-03T05:46:42.352Z,100899.91
2023-04-03T05:49:11.417Z,100897.22
2023-04-03T05:51:40.598Z,100897.91
2023-04-03T05:54:19.514Z,100900.94
2023-04-03T05:56:47.687Z,100911.63
2023-04-03T05:59:15.561Z,100906.88
2023-04-03T06:01:44.925Z,100904.69
2023-04-03T06:04:13.911Z,100913.94
2023-04-03T06:06:46.683Z,100915.97
2023-04-03T06:09:14.464Z,100910.38
2023-04-03T06:11:42.744Z,100908.69
2023-04-03T06:14:11.729Z,100910.75
2023-04-03T06:16:40.233Z,100913.03
2023-04-03T06:19:10.616Z,100913.84
2023-04-03T06:21:41.418Z,100920.72
2023-04-03T06:24:11.361Z,100912.84
2023-04-03T06:26:38.984Z,100917.69
2023-04-03T06:29:06.604Z,100920.22
2023-04-03T06:31:34.269Z,100923.00
2023-04-03T06:34:02.272Z,100900.00
2023-04-03T06:36:31.346Z,100930.47
2023-04-03T06:38:59.094Z,100934.47
2023-04-03T06:41:27.625Z,100931.31
2023-04-03T06:43:57.310Z,100933.34
2023-04-03T06:46:25.021Z,100927.53
2023-04-03T06:48:53.170Z,100932.31
2023-04-03T06:51:23.355Z,100939.50
2023-04-03T06:53:54.341Z,100942.91
2023-04-03T06:56:22.086Z,100946.78
2023-04-03T06:58:50.009Z,100944.19
2023-04-03T07:01:20.098Z,100928.31
2023-04-03T07:03:48.859Z,100956.22
2023-04-03T07:06:18.743Z,100955.59
2023-04-03T07:08:47.157Z,100960.63
2023-04-03T07:11:16.579Z,100948.84
2023-04-03T07:13:44.333Z,100957.34
2023-04-03T07:16:12.509Z,100971.16
2023-04-03T07:18:40.986Z,100968.81
2023-04-03T07:21:08.753Z,100969.56
2023-04-03T07:23:36.486Z,100973.81
2023-04-03T07:26:04.228Z,100972.72
2023-04-03T07:28:33.267Z,100980.44
2023-04-03T07:31:03.501Z,100952.84
2023-04-03T07:33:31.961Z,100964.34
2023-04-03T07:36:01.310Z,100972.72
2023-04-03T07:38:29.399Z,100985.00
2023-04-03T07:40:57.256Z,100982.91
2023-04-03T07:43:25.655Z,100987.22
2023-04-03T07:45:55.626Z,100987.06
2023-04-03T07:48:24.990Z,100984.31
2023-04-03T07:50:53.101Z,100985.75
2023-04-03T07:53:21.008Z,100918.78
2023-04-03T07:55:49.992Z,100981.66
2023-04-03T07:58:20.160Z,100986.84
2023-04-03T08:00:48.553Z,100978.91
2023-04-03T08:03:18.851Z,100989.06
2023-04-03T08:05:48.715Z,100997.66
2023-04-03T08:08:20.907Z,100993.69
2023-04-03T08:10:52.031Z,100997.72
2023-04-03T08:13:19.923Z,101001.53
2023-04-03T08:15:47.703Z,100996.34
2023-04-03T08:18:17.538Z,100997.88
2023-04-03T08:20:45.833Z,101002.56
2023-04-03T08:23:13.585Z,101006.19
2023-04-03T08:25:41.791Z,100996.63
2023-04-03T08:28:09.914Z,100998.63
2023-04-03T08:30:38.652Z,101000.31
2023-04-03T08:33:07.150Z,100991.41
2023-04-03T08:35:41.546Z,100993.66
2023-04-03T08:38:09.537Z,100991.66
2023-04-03T08:40:37.223Z,100987.41
2023-04-03T08:43:19.001Z,100992.75
2023-04-03T08:45:51.244Z,100997.84
2023-04-03T08:48:22.661Z,100994.19
2023-04-03T08:50:55.499Z,100992.03
2023-04-03T08:53:28.107Z,100984.09
2023-04-03T08:55:57.174Z,100983.63
2023-04-03T08:58:27.886Z,100984.59
2023-04-03T09:00:59.172Z,100990.38
2023-04-03T09:03:27.295Z,100989.00
2023-04-03T09:06:02.004Z,100992.03
2023-04-03T09:08:32.781Z,100990.91
2023-04-03T09:11:14.804Z,100981.28
2023-04-03T09:13:51.618Z,100988.78
2023-04-03T09:16:28.255Z,100987.91
2023-04-03T09:19:04.829Z,100980.31
2023-04-03T09:21:39.184Z,100985.88
2023-04-03T09:24:09.153Z,100988.72
2023-04-03T09:26:44.555Z,100981.97
2023-04-03T09:29:19.579Z,100984.16
2023-04-03T09:31:49.782Z,100986.25
2023-04-03T09:34:24.484Z,100965.94
2023-04-03T09:36:57.068Z,100983.06
2023-04-03T09:39:28.054Z,100983.94
2023-04-03T09:42:02.235Z,100972.38
2023-04-03T09:44:32.616Z,100987.22
2023-04-03T09:47:01.268Z,100974.38
2023-04-03T09:49:29.307Z,100981.38
2023-04-03T09:51:58.286Z,100978.56
2023-04-03T09:54:32.715Z,100967.94
2023-04-03T09:57:06.178Z,100919.16
2023-04-03T09:59:34.817Z,100972.56
2023-04-03T10:02:05.237Z,100968.09
2023-04-03T10:04:43.291Z,100970.25
2023-04-03T10:07:33.499Z,100967.75
2023-04-03T10:10:04.990Z,100958.34
2023-04-03T10:12:32.741Z,100965.09
2023-04-03T10:15:02.297Z,100963.72
2023-04-03T10:17:44.857Z,100951.34
2023-04-03T10:20:29.162Z,100951.91
2023-04-03T10:23:06.196Z,100955.72
2023-04-03T10:25:42.889Z,100957.66
2023-04-03T10:28:17.962Z,100952.66
2023-04-03T10:30:56.067Z,100954.81
2023-04-03T10:33:38.153Z,100956.41
2023-04-03T10:36:19.578Z,100958.53
2023-04-03T10:38:57.494Z,100952.31
2023-04-03T10:41:32.777Z,100944.75
2023-04-03T10:44:08.734Z,100950.44
2023-04-03T10:46:40.114Z,100940.34
2023-04-03T10:49:21.253Z,100952.56
2023-04-03T10:51:54.546Z,100949.81
2023-04-03T10:54:27.872Z,100945.56
2023-04-03T10:57:11.066Z,100949.53
2023-04-03T10:59:45.712Z,100945.34
2023-04-03T11:02:19.973Z,100947.38
2023-04-03T11:04:53.152Z,100946.75
2023-04-03T11:07:24.204Z,100944.41
2023-04-03T11:09:57.868Z,100939.44
2023-04-03T11:12:30.944Z,100935.41
2023-04-03T11:14:59.046Z,100947.06
2023-04-03T11:17:35.350Z,100942.06
2023-04-03T11:20:12.104Z,100885.63
2023-04-03T11:22:43.878Z,100936.91
2023-04-03T11:25:23.722Z,100936.69
2023-04-03T11:27:55.777Z,100938.44
2023-04-03T11:30:27.366Z,100943.56
2023-04-03T11:33:18.473Z,100940.72
2023-04-03T11:35:49.058Z,100935.47
2023-04-03T11:38:23.859Z,100936.72
2023-04-03T11:40:53.508Z,100933.97
2023-04-03T11:43:27.696Z,100928.47
2023-04-03T11:46:00.123Z,100933.41
2023-04-03T11:48:57.301Z,100929.50
2023-04-03T11:51:44.933Z,100915.25
2023-04-03T11:54:47.588Z,100917.81
2023-04-03T11:57:57.968Z,100926.00
2023-04-03T12:01:03.496Z,100912.06
2023-04-03T12:04:04.314Z,100907.00
2023-04-03T12:07:15.723Z,100897.69
2023-04-03T12:10:28.703Z,100898.91
2023-04-03T12:13:03.261Z,100901.13
2023-04-03T12:15:55.657Z,100897.41
2023-04-03T12:18:45.421Z,100898.47
2023-04-03T12:21:14.989Z,100897.53
2023-04-03T12:24:04.659Z,100902.88
2023-04-03T12:26:47.629Z,100909.44
2023-04-03T12:29:22.359Z,100876.97
2023-04-03T12:32:07.134Z,100892.59
2023-04-03T12:34:58.070Z,100895.78
2023-04-03T12:37:42.741Z,100885.78
2023-04-03T12:40:18.525Z,100890.13
2023-04-03T12:43:09.103Z,100899.50
2023-04-03T12:45:44.565Z,100887.44
2023-04-03T12:48:17.718Z,100888.00
2023-04-03T12:50:48.977Z,100888.53
2023-04-03T12:53:21.258Z,100889.19
2023-04-03T12:55:48.927Z,100880.63
2023-04-03T12:58:22.806Z,100871.38
2023-04-03T13:01:03.130Z,100879.03
2023-04-03T13:03:31.390Z,100879.16
2023-04-03T13:06:04.245Z,100874.66
2023-04-03T13:08:32.513Z,100874.94
2023-04-03T13:11:03.547Z,100878.28
2023-04-03T13:13:31.911Z,100877.00
2023-04-03T13:16:00.609Z,100872.94
2023-04-03T13:18:32.017Z,100868.91
2023-04-03T13:21:06.664Z,100850.19
2023-04-03T13:23:38.297Z,100869.13
2023-04-03T13:26:07.779Z,100856.66
2023-04-03T13:28:37.818Z,100863.31
2023-04-03T13:31:12.574Z,100863.91
2023-04-03T13:33:40.885Z,100863.22
2023-04-03T13:36:19.527Z,100859.47
2023-04-03T13:38:47.204Z,100855.75
2023-04-03T13:41:28.266Z,100861.34
2023-04-03T13:44:03.423Z,100862.25
2023-04-03T13:46:38.408Z,100853.72
2023-04-03T13:49:20.828Z,100856.91
2023-04-03T13:52:03.938Z,100862.47
2023-04-03T13:54:37.471Z,100838.16
2023-04-03T13:57:13.743Z,100849.13
2023-04-03T13:59:41.413Z,100842.63
2023-04-03T14:02:18.782Z,100850.63
2023-04-03T14:04:54.147Z,100852.31
2023-04-03T14:07:23.219Z,100851.84
2023-04-03T14:09:51.583Z,100843.09
2023-04-03T14:12:30.871Z,100849.72
2023-04-03T14:15:00.521Z,100850.97
2023-04-03T14:17:28.697Z,100839.44
2023-04-03T14:19:58.500Z,100839.47
2023-04-03T14:22:30.246Z,100839.75
2023-04-03T14:24:58.437Z,100829.09
2023-04-03T14:27:29.481Z,100825.50
2023-04-03T14:29:58.851Z,100825.06
2023-04-03T14:32:28.081Z,100839.88
2023-04-03T14:34:56.218Z,100834.47
2023-04-03T14:37:26.021Z,100824.56
2023-04-03T14:39:55.911Z,100820.78
2023-04-03T14:42:25.342Z,100817.13
2023-04-03T14:44:53.669Z,100790.81
2023-04-03T14:47:31.251Z,100805.84
2023-04-03T14:49:59.864Z,100813.28
2023-04-03T14:52:30.388Z,100803.38
2023-04-03T14:55:01.234Z,100807.75
2023-04-03T14:57:30.528Z,100798.50
2023-04-03T14:59:58.712Z,100803.22
2023-04-03T15:02:30.384Z,100794.28
2023-04-03T15:04:59.147Z,100789.78
2023-04-03T15:07:29.626Z,100793.59
2023-04-03T15:09:57.680Z,100780.75
2023-04-03T15:12:27.191Z,100784.31
2023-04-03T15:15:01.084Z,100787.06
2023-04-03T15:17:31.346Z,100795.63
2023-04-03T15:20:00.496Z,100800.91
2023-04-03T15:22:28.327Z,100799.91
2023-04-03T15:24:55.981Z,100788.91
2023-04-03T15:27:23.824Z,100787.59
2023-04-03T15:29:52.791Z,100803.56
2023-04-03T15:32:20.540Z,100798.16
2023-04-03T15:34:48.148Z,100795.00
2023-04-03T15:37:15.756Z,100793.72
2023-04-03T15:39:43.406Z,100791.47
2023-04-03T15:42:11.049Z,100794.16
2023-04-03T15:44:39.043Z,100800.72
2023-04-03T15:47:08.111Z,100764.59
2023-04-03T15:49:36.411Z,100797.59
2023-04-03T15:52:04.410Z,100791.31
2023-04-03T15:54:32.216Z,100790.78
2023-04-03T15:56:59.914Z,100798.25
2023-04-03T15:59:29.900Z,100788.91
2023-04-03T16:01:57.640Z,100791.75
2023-04-03T16:04:26.884Z,100796.56
2023-04-03T16:06:54.567Z,100796.13
2023-04-03T16:09:22.181Z,100798.88
2023-04-03T16:11:50.008Z,100801.31
2023-04-03T16:14:17.661Z,100795.91
2023-04-03T16:16:45.633Z,100803.00
2023-04-03T16:19:14.030Z,100798.72
2023-04-03T16:21:43.084Z,100801.50
2023-04-03T16:24:11.003Z,100814.38
2023-04-03T16:26:38.615Z,100813.00
2023-04-03T16:29:06.252Z,100804.84
2023-04-03T16:31:35.596Z,100805.75
2023-04-03T16:34:03.502Z,100812.47
2023-04-03T16:36:31.234Z,100799.00
2023-04-03T16:39:00.385Z,100804.84
2023-04-03T16:41:28.053Z,100810.59
2023-04-03T16:43:55.706Z,100805.28
2023-04-03T16:46:24.393Z,100805.06
2023-04-03T16:48:52.036Z,100809.06
2023-04-03T16:51:19.683Z,100798.97
2023-04-03T16:53:47.438Z,100802.75
2023-04-03T16:56:16.741Z,100809.47
2023-04-03T16:58:44.924Z,100807.97
2023-04-03T17:01:14.144Z,100802.25
2023-04-03T17:03:41.921Z,100794.78
2023-04-03T17:06:15.541Z,100809.31
2023-04-03T17:08:43.915Z,100797.84
2023-04-03T17:11:12.048Z,100814.03
2023-04-03T17:13:41.067Z,100810.63
2023-04-03T17:16:12.012Z,100807.38
2023-04-03T17:18:39.892Z,100808.38
2023-04-03T17:21:08.775Z,100810.59
2023-04-03T17:23:38.225Z,100805.19
2023-04-03T17:26:06.313Z,100808.19
2023-04-03T17:28:33.985Z,100815.97
2023-04-03T17:31:04.017Z,100809.72
2023-04-03T17:33:32.044Z,100811.09
2023-04-03T17:36:01.347Z,100816.81
2023-04-03T17:38:29.522Z,100814.47
2023-04-03T17:40:58.382Z,100821.56
2023-04-03T17:43:26.832Z,100823.75
2023-04-03T17:45:55.954Z,100825.88
2023-04-03T17:48:26.277Z,100822.19
2023-04-03T17:50:53.906Z,100829.13
2023-04-03T17:53:21.550Z,100813.25
2023-04-03T17:55:49.179Z,100829.94
2023-04-03T17:58:17.527Z,100827.44
2023-04-03T18:00:45.276Z,100835.78
2023-04-03T18:03:12.952Z,100831.94
2023-04-03T18:05:42.108Z,100829.69
2023-04-03T18:08:09.887Z,100848.47
2023-04-03T18:10:38.454Z,100840.41
2023-04-03T18:13:07.748Z,100838.50
2023-04-03T18:15:35.709Z,100838.00
2023-04-03T18:18:03.529Z,100839.41
2023-04-03T18:20:31.439Z,100843.72
2023-04-03T18:23:00.512Z,100852.06
2023-04-03T18:25:28.375Z,100849.63
2023-04-03T18:27:58.426Z,100856.22
2023-04-03T18:30:26.445Z,100852.34
2023-04-03T18:32:54.319Z,100853.00
2023-04-03T18:35:22.036Z,100784.28
2023-04-03T18:37:49.660Z,100852.75
2023-04-03T18:40:18.940Z,100852.59
2023-04-03T18:42:46.720Z,100839.09
2023-04-03T18:45:22.417Z,100815.94
2023-04-03T18:47:50.649Z,100865.50
2023-04-03T18:50:18.592Z,100864.72
2023-04-03T18:52:46.952Z,100863.53
2023-04-03T18:55:16.850Z,100871.81
2023-04-03T18:57:46.424Z,100873.78
2023-04-03T19:00:15.371Z,100870.44
2023-04-03T19:02:43.764Z,100872.81
2023-04-03T19:05:14.829Z,100878.59
2023-04-03T19:07:44.660Z,100875.81
2023-04-03T19:10:17.055Z,100883.88
2023-04-03T19:12:47.136Z,100877.06
2023-04-03T19:15:15.345Z,100880.66
2023-04-03T19:17:43.143Z,100879.13
2023-04-03T19:20:13.217Z,100887.47
2023-04-03T19:22:41.909Z,100887.13
2023-04-03T19:25:11.505Z,100895.31
2023-04-03T19:27:40.290Z,100891.28
2023-04-03T19:30:11.979Z,100894.13
2023-04-03T19:32:39.817Z,100894.25
2023-04-03T19:35:08.940Z,100897.00
2023-04-03T19:37:36.897Z,100899.78
2023-04-03T19:40:05.704Z,100904.66
2023-04-03T19:42:34.479Z,100900.94
2023-04-03T19:45:02.124Z,100897.56
2023-04-03T19:47:31.335Z,100900.81
2023-04-03T19:49:58.982Z,100906.47
2023-04-03T19:52:26.629Z,100905.38
2023-04-03T19:54:54.540Z,100907.09
2023-04-03T19:57:22.228Z,100913.66
2023-04-03T19:59:49.913Z,100915.69
2023-04-03T20:02:18.756Z,100911.94
2023-04-03T20:04:48.765Z,100916.25
2023-04-03T20:07:16.566Z,100918.72
2023-04-03T20:09:44.345Z,100919.09
2023-04-03T20:12:12.256Z,100917.81
2023-04-03T20:14:40.936Z,100914.38
2023-04-03T20:17:08.595Z,100924.53
2023-04-03T20:19:36.727Z,100920.19
2023-04-03T20:22:05.791Z,100906.59
2023-04-03T20:24:33.963Z,100910.31
2023-04-03T20:27:01.831Z,100913.03
2023-04-03T20:29:29.459Z,100915.25
2023-04-03T20:31:57.596Z,100913.47
2023-04-03T20:34:25.769Z,100909.34
2023-04-03T20:36:53.417Z,100915.69
2023-04-03T20:39:24.600Z,100914.78
2023-04-03T20:41:52.838Z,100916.69
2023-04-03T20:44:21.720Z,100916.09
2023-04-03T20:46:53.467Z,100909.75
2023-04-03T20:49:22.802Z,100915.00
2023-04-03T20:51:51.108Z,100915.97
2023-04-03T20:54:19.002Z,100911.13
2023-04-03T20:56:49.566Z,100904.50
2023-04-03T20:59:17.673Z,100907.91
2023-04-03T21:01:46.805Z,100902.09
2023-04-03T21:04:19.290Z,100875.50
2023-04-03T21:07:24.434Z,100904.91
2023-04-03T21:10:29.613Z,100911.31
2023-04-03T21:13:34.729Z,100903.66
2023-04-03T21:16:02.172Z,100893.88
2023-04-03T21:18:41.953Z,100904.97
2023-04-03T21:21:18.709Z,100906.56
2023-04-03T21:23:47.149Z,100912.09
2023-04-03T21:26:15.425Z,100906.38
2023-04-03T21:28:44.054Z,100908.69
2023-04-03T21:31:12.758Z,100883.41
2023-04-03T21:33:42.383Z,100915.13
2023-04-03T21:36:10.611Z,100905.06
2023-04-03T21:38:38.274Z,100897.22
2023-04-03T21:41:05.986Z,100902.13
2023-04-03T21:43:33.691Z,100892.56
2023-04-03T21:46:01.870Z,100894.59
2023-04-03T21:48:30.522Z,100892.56
2023-04-03T21:51:06.522Z,100894.31
2023-04-03T21:53:35.452Z,100889.41
2023-04-03T21:56:03.111Z,100897.56
2023-04-03T21:58:32.326Z,100894.13
2023-04-03T22:01:09.486Z,100892.41
2023-04-03T22:03:37.182Z,100879.56
2023-04-03T22:06:06.866Z,100884.47
2023-04-03T22:08:34.717Z,100882.84
2023-04-03T22:11:03.549Z,100877.19
2023-04-03T22:13:31.427Z,100885.47
2023-04-03T22:15:59.347Z,100883.75
2023-04-03T22:18:27.339Z,100880.53
2023-04-03T22:20:55.684Z,100879.53
2023-04-03T22:23:24.735Z,100874.53
2023-04-03T22:26:00.157Z,100834.22
2023-04-03T22:28:28.565Z,100876.50
2023-04-03T22:30:57.103Z,100869.69
2023-04-03T22:33:24.816Z,100881.34
2023-04-03T22:35:52.808Z,100866.13
2023-04-03T22:38:20.450Z,100859.19
2023-04-03T22:40:57.380Z,100861.19
2023-04-03T22:43:25.358Z,100863.72
2023-04-03T22:45:52.967Z,100864.94
2023-04-03T22:48:20.948Z,100860.50
2023-04-03T22:50:48.647Z,100863.91
2023-04-03T22:53:16.964Z,100866.34
2023-04-03T22:55:44.689Z,100861.88
2023-04-03T22:58:13.657Z,100854.13
2023-04-03T23:00:41.731Z,100849.63
2023-04-03T23:03:12.864Z,100853.56
2023-04-03T23:05:40.830Z,100848.44
2023-04-03T23:08:08.445Z,100849.63
2023-04-03T23:10:36.193Z,100850.22
2023-04-03T23:13:03.900Z,100857.97
2023-04-03T23:15:32.886Z,100859.66
2023-04-03T23:18:00.656Z,100854.13
2023-04-03T23:20:28.289Z,100863.47
2023-04-03T23:22:55.922Z,100860.81
2023-04-03T23:25:23.624Z,100859.00
2023-04-03T23:27:52.539Z,100861.47
2023-04-03T23:30:20.913Z,100866.34
2023-04-03T23:32:49.889Z,100867.00
2023-04-03T23:35:17.894Z,100867.13
2023-04-03T23:37:45.594Z,100875.47
2023-04-03T23:40:13.741Z,100888.09
2023-04-03T23:42:41.454Z,100876.84
2023-04-03T23:45:10.211Z,100877.78
2023-04-03T23:47:38.252Z,100877.66
2023-04-03T23:50:08.557Z,100869.63
2023-04-03T23:52:36.185Z,100872.72
2023-04-03T23:55:04.499Z,100877.53
2023-04-03T23:57:32.223Z,100876.75
2023-04-03T23:59:59.858Z,100873.03
